Accueil
METAR-TAF:

METAR-TAF

Aéroports :

Aéroport de Friedrichshafen

Friedrichshafen, Allemagne

latitude: 47-40N, longitude: 009-31E, altitude: 416 m

Observation

Le bulletin a été fait il y a 34 minutes, à 12:20 UTC
Vent 7 kt de nord
Température 0°C
Humidité 64%
Pression 1017 hPa
Visibilité 10 km ou plus
Nuages fragmentés à une hauteur de 2800 ft

METAR: EDNY 141220Z 36007KT 9999 BKN028 M00/M06 Q1017

Heure: 13:54 (12:54 UTC)

Prévision

Le bulletin a été fait il y a 1 heure et 54 minutes, à 11:00 UTC
Prévision valable du 14 à 12 UTC au 15 à 12 UTC
Vent 7 kt de nord/nord-est
Visibilité 10 km ou plus
Quelques nuages à une hauteur de 2500 ft

TAF: EDNY 141100Z 1412/1512 03007KT 9999 FEW025

Observations et prévisions météorologiques de plus de 4000 aéroports (messages METAR et TAF).

Les stations disponibles sont représentées par des disques jaunes et rouges sur la carte.

Passer la souris dessus pour voir le nom de la station.

Cliquer dessus pour voir les observations et prévisions météorologiques.

Pour changer de carte: cliquez sur les boutons verts avec une croix noire pour zoomer, sur le bouton vert avec un tiret pour effectuer un zoom arrière, ou sur les flèches vertes pour les cartes adjacentes.


METAR-TAF: